createdAt,value
2016-12-31T00:00:09.031Z,-1.28
2016-12-31T00:01:09.045Z,-1.28
2016-12-31T00:02:09.062Z,-1.3
2016-12-31T00:03:09.071Z,-1.35
2016-12-31T00:04:09.087Z,-1.31
2016-12-31T00:05:24.017Z,-1.33
2016-12-31T00:06:09.112Z,-1.19
2016-12-31T00:07:09.126Z,-1.12
2016-12-31T00:08:09.140Z,-1.05
2016-12-31T00:09:09.154Z,-1.04
2016-12-31T00:10:09.173Z,-0.95
2016-12-31T00:11:09.180Z,-1.02
2016-12-31T00:12:09.193Z,-1.13
2016-12-31T00:13:09.209Z,-1.15
2016-12-31T00:14:24.138Z,-1.17
2016-12-31T00:15:24.158Z,-1.23
2016-12-31T00:16:24.161Z,-1.16
2016-12-31T00:17:09.256Z,-1.13
2016-12-31T00:18:09.274Z,-1.16
2016-12-31T00:19:09.286Z,-1.12
2016-12-31T00:20:24.216Z,-1.25
2016-12-31T00:21:09.312Z,-1.22
2016-12-31T00:22:09.323Z,-1.15
2016-12-31T00:23:09.339Z,-1.16
2016-12-31T00:24:09.355Z,-1.16
2016-12-31T00:25:09.373Z,-1.13
2016-12-31T00:26:09.766Z,-1.17
2016-12-31T00:27:09.390Z,-1.09
2016-12-31T00:28:09.407Z,-1.02
2016-12-31T00:29:09.417Z,-1.09
2016-12-31T00:30:09.438Z,-1.12
2016-12-31T00:31:24.362Z,-1.1
2016-12-31T00:32:09.460Z,-1.15
2016-12-31T00:33:09.473Z,-1.15
2016-12-31T00:34:09.485Z,-1.2
2016-12-31T00:35:09.499Z,-1.2
2016-12-31T00:36:09.514Z,-1.27
2016-12-31T00:37:09.551Z,-1.34
2016-12-31T00:38:09.541Z,-1.41
2016-12-31T00:39:09.552Z,-1.38
2016-12-31T00:40:09.564Z,-1.38
2016-12-31T00:41:09.582Z,-1.33
2016-12-31T00:43:09.605Z,-1.19
2016-12-31T00:44:09.620Z,-1.28
2016-12-31T00:45:24.550Z,-1.27
2016-12-31T00:46:09.644Z,-1.3
2016-12-31T00:47:09.658Z,-1.25
2016-12-31T00:48:09.669Z,-1.31
2016-12-31T00:49:09.683Z,-1.35
2016-12-31T00:50:09.700Z,-1.31
2016-12-31T00:51:09.708Z,-1.43
2016-12-31T00:52:24.640Z,-1.38
2016-12-31T00:53:09.740Z,-1.41
2016-12-31T00:54:09.751Z,-1.48
2016-12-31T00:55:09.762Z,-1.54
2016-12-31T00:56:09.775Z,-1.55
2016-12-31T00:57:09.786Z,-1.54
2016-12-31T00:58:09.805Z,-1.54
2016-12-31T00:59:09.815Z,-1.41
2016-12-31T01:00:09.832Z,-1.45
2016-12-31T01:01:09.841Z,-1.54
2016-12-31T01:02:09.855Z,-1.59
2016-12-31T01:03:24.786Z,-1.55
2016-12-31T01:04:09.883Z,-1.55
2016-12-31T01:05:09.898Z,-1.59
2016-12-31T01:06:09.908Z,-1.59
2016-12-31T01:07:09.922Z,-1.61
2016-12-31T01:08:24.852Z,-1.54
2016-12-31T01:09:09.949Z,-1.58
2016-12-31T01:10:09.964Z,-1.59
2016-12-31T01:11:09.975Z,-1.58
2016-12-31T01:13:10.005Z,-1.58
2016-12-31T01:14:10.017Z,-1.69
2016-12-31T01:15:10.028Z,-1.62
2016-12-31T01:16:24.960Z,-1.67
2016-12-31T01:17:24.973Z,-1.67
2016-12-31T01:18:10.068Z,-1.59
2016-12-31T01:19:24.996Z,-1.76
2016-12-31T01:20:25.009Z,-1.59
2016-12-31T01:21:10.104Z,-1.61
2016-12-31T01:22:10.119Z,-1.51
2016-12-31T01:23:10.135Z,-1.52
2016-12-31T01:24:25.063Z,-1.58
2016-12-31T01:25:10.163Z,-1.52
2016-12-31T01:26:10.170Z,-1.62
2016-12-31T01:27:10.184Z,-1.56
2016-12-31T01:28:10.197Z,-1.56
2016-12-31T01:29:10.213Z,-1.51
2016-12-31T01:30:10.226Z,-1.59
2016-12-31T01:31:10.238Z,-1.55
2016-12-31T01:32:10.247Z,-1.58
2016-12-31T01:33:10.266Z,-1.62
2016-12-31T01:34:25.195Z,-1.59
2016-12-31T01:35:10.288Z,-1.76
2016-12-31T01:36:10.303Z,-1.72
2016-12-31T01:37:10.315Z,-1.7
2016-12-31T01:38:10.330Z,-1.72
2016-12-31T01:39:10.345Z,-1.72
2016-12-31T01:40:25.272Z,-1.7
2016-12-31T01:41:10.368Z,-1.73
2016-12-31T01:42:10.379Z,-1.67
2016-12-31T01:43:10.780Z,-1.74
2016-12-31T01:44:10.407Z,-1.67
2016-12-31T01:45:10.421Z,-1.58
2016-12-31T01:47:10.448Z,-1.58
2016-12-31T01:48:25.380Z,-1.58
2016-12-31T01:49:10.473Z,-1.49
2016-12-31T01:50:25.404Z,-1.58
2016-12-31T01:51:10.500Z,-1.64
2016-12-31T01:52:10.512Z,-1.66
2016-12-31T01:53:10.526Z,-1.76
2016-12-31T01:54:10.563Z,-1.61
2016-12-31T01:55:25.468Z,-1.52
2016-12-31T01:56:10.565Z,-1.52
2016-12-31T01:57:10.580Z,-1.58
2016-12-31T01:58:10.590Z,-1.52
2016-12-31T01:59:10.602Z,-1.54
2016-12-31T02:00:10.616Z,-1.59
2016-12-31T02:01:10.630Z,-1.58
2016-12-31T02:02:10.648Z,-1.56
2016-12-31T02:03:10.656Z,-1.64
2016-12-31T02:04:10.669Z,-1.59
2016-12-31T02:05:10.683Z,-1.73
2016-12-31T02:06:10.695Z,-1.62
2016-12-31T02:07:10.715Z,-1.77
2016-12-31T02:08:10.722Z,-1.79
2016-12-31T02:09:11.123Z,-1.69
2016-12-31T02:10:10.796Z,-1.52
2016-12-31T02:11:10.764Z,-1.54
2016-12-31T02:12:10.825Z,-1.61
2016-12-31T02:13:10.785Z,-1.55
2016-12-31T02:14:10.796Z,-1.54
2016-12-31T02:15:10.816Z,-1.52
2016-12-31T02:16:10.826Z,-1.64
2016-12-31T02:17:10.841Z,-1.66
2016-12-31T02:19:10.867Z,-1.69
2016-12-31T02:20:10.876Z,-1.82
2016-12-31T02:21:25.808Z,-1.8
2016-12-31T02:22:10.906Z,-1.85
2016-12-31T02:23:10.917Z,-1.85
2016-12-31T02:24:10.928Z,-1.8
2016-12-31T02:25:10.947Z,-1.66
2016-12-31T02:26:10.955Z,-1.72
2016-12-31T02:27:25.913Z,-1.73
2016-12-31T02:28:10.979Z,-1.72
2016-12-31T02:29:10.995Z,-1.76
2016-12-31T02:30:11.006Z,-1.79
2016-12-31T02:31:11.023Z,-1.77
2016-12-31T02:33:11.048Z,-1.72
2016-12-31T02:34:11.059Z,-1.74
2016-12-31T02:35:11.073Z,-1.74
2016-12-31T02:36:11.089Z,-1.76
2016-12-31T02:37:11.097Z,-1.8
2016-12-31T02:38:11.111Z,-1.67
2016-12-31T02:39:11.125Z,-1.77
2016-12-31T02:41:11.151Z,-1.73
2016-12-31T02:42:11.161Z,-1.76
2016-12-31T02:43:26.093Z,-1.72
2016-12-31T02:44:11.188Z,-1.74
2016-12-31T02:45:11.204Z,-1.7
2016-12-31T02:46:11.213Z,-1.7
2016-12-31T02:47:11.228Z,-1.67
2016-12-31T02:48:11.242Z,-1.76
2016-12-31T02:49:11.252Z,-1.76
2016-12-31T02:50:26.187Z,-1.73
2016-12-31T02:51:11.280Z,-1.7
2016-12-31T02:52:11.290Z,-1.79
2016-12-31T02:53:26.223Z,-1.77
2016-12-31T02:54:26.234Z,-1.61
2016-12-31T02:55:11.333Z,-1.64
2016-12-31T02:56:11.347Z,-1.64
2016-12-31T02:57:11.357Z,-1.58
2016-12-31T02:58:11.368Z,-1.46
2016-12-31T02:59:26.299Z,-1.67
2016-12-31T03:00:11.403Z,-1.72
2016-12-31T03:01:11.410Z,-1.77
2016-12-31T03:02:11.421Z,-1.64
2016-12-31T03:03:11.432Z,-1.69
2016-12-31T03:04:11.472Z,-1.66
2016-12-31T03:05:11.463Z,-1.67
2016-12-31T03:06:11.475Z,-1.77
2016-12-31T03:08:11.498Z,-1.84
2016-12-31T03:09:26.429Z,-1.82
2016-12-31T03:10:11.530Z,-1.84
2016-12-31T03:11:11.536Z,-1.84
2016-12-31T03:12:11.554Z,-1.85
2016-12-31T03:13:11.563Z,-1.95
2016-12-31T03:14:11.575Z,-1.9
2016-12-31T03:15:26.506Z,-1.87
2016-12-31T03:16:11.605Z,-1.9
2016-12-31T03:17:11.615Z,-1.91
2016-12-31T03:18:11.625Z,-1.91
2016-12-31T03:19:11.640Z,-1.92
2016-12-31T03:20:11.652Z,-1.9
2016-12-31T03:21:11.665Z,-1.94
2016-12-31T03:22:11.680Z,-1.95
2016-12-31T03:23:11.692Z,-1.88
2016-12-31T03:24:11.705Z,-1.97
2016-12-31T03:25:26.637Z,-2.03
2016-12-31T03:26:11.733Z,-1.91
2016-12-31T03:27:11.750Z,-1.91
2016-12-31T03:28:11.757Z,-1.94
2016-12-31T03:29:11.769Z,-2
2016-12-31T03:30:26.700Z,-2.12
2016-12-31T03:31:11.796Z,-2.09
2016-12-31T03:32:11.809Z,-2.06
2016-12-31T03:33:11.822Z,-2.05
2016-12-31T03:34:11.836Z,-2.03
2016-12-31T03:35:11.847Z,-2.1
2016-12-31T03:37:11.875Z,-2.08
2016-12-31T03:38:11.888Z,-2.2
2016-12-31T03:39:11.897Z,-2.26
2016-12-31T03:40:26.829Z,-2.18
2016-12-31T03:41:11.926Z,-2.29
2016-12-31T03:42:11.938Z,-2.16
2016-12-31T03:43:26.866Z,-2.26
2016-12-31T03:44:11.961Z,-2.18
2016-12-31T03:45:11.976Z,-2.27
2016-12-31T03:46:11.991Z,-2.26
2016-12-31T03:47:12.004Z,-2.32
2016-12-31T03:48:12.014Z,-2.15
2016-12-31T03:50:12.043Z,-2.26
2016-12-31T03:51:12.053Z,-2.29
2016-12-31T03:52:12.068Z,-2.32
2016-12-31T03:53:12.082Z,-2.34
2016-12-31T03:54:12.112Z,-2.26
2016-12-31T03:55:12.104Z,-2.27
2016-12-31T03:56:12.116Z,-2.37
2016-12-31T03:57:12.137Z,-2.24
2016-12-31T03:58:27.059Z,-2.3
2016-12-31T03:59:12.163Z,-2.24
2016-12-31T04:00:12.166Z,-2.15
2016-12-31T04:01:12.180Z,-2.29
2016-12-31T04:03:12.205Z,-2.21
2016-12-31T04:04:12.223Z,-2.2
2016-12-31T04:05:12.231Z,-2.21
2016-12-31T04:06:12.246Z,-2.26
2016-12-31T04:07:12.256Z,-2.29
2016-12-31T04:08:12.271Z,-2.2
2016-12-31T04:09:12.284Z,-2.16
2016-12-31T04:10:27.216Z,-2.29
2016-12-31T04:11:12.308Z,-2.21
2016-12-31T04:12:12.623Z,-2.24
2016-12-31T04:13:12.339Z,-2.13
2016-12-31T04:14:27.263Z,-2.12
2016-12-31T04:15:12.363Z,-2.23
2016-12-31T04:16:12.372Z,-2.21
2016-12-31T04:17:12.383Z,-2.18
2016-12-31T04:18:27.316Z,-2.23
2016-12-31T04:19:12.411Z,-2.23
2016-12-31T04:20:12.423Z,-2.18
2016-12-31T04:21:12.438Z,-2.1
2016-12-31T04:22:12.449Z,-2.03
2016-12-31T04:26:12.499Z,-2.18
2016-12-31T04:27:12.512Z,-2.21
2016-12-31T04:28:12.552Z,-2.23
2016-12-31T04:29:12.538Z,-2.26
2016-12-31T04:30:12.552Z,-2.3
2016-12-31T04:31:12.565Z,-2.24
2016-12-31T04:32:12.577Z,-2.37
2016-12-31T04:33:12.589Z,-2.4
2016-12-31T04:34:27.518Z,-2.3
2016-12-31T04:35:12.611Z,-2.42
2016-12-31T04:36:12.625Z,-2.29
2016-12-31T04:37:12.638Z,-2.4
2016-12-31T04:38:12.654Z,-2.4
2016-12-31T04:39:12.662Z,-2.3
2016-12-31T04:40:12.677Z,-2.24
2016-12-31T04:41:12.690Z,-2.27
2016-12-31T04:42:12.700Z,-2.37
2016-12-31T04:43:12.715Z,-2.4
2016-12-31T04:44:12.725Z,-2.29
2016-12-31T04:45:12.741Z,-2.32
2016-12-31T04:46:12.752Z,-2.26
2016-12-31T04:47:12.763Z,-2.26
2016-12-31T04:48:12.776Z,-2.16
2016-12-31T04:49:12.786Z,-2.35
2016-12-31T04:50:27.718Z,-2.3
2016-12-31T04:51:12.815Z,-2.26
2016-12-31T04:52:12.826Z,-2.27
2016-12-31T04:53:12.837Z,-2.18
2016-12-31T04:54:12.849Z,-2.34
2016-12-31T04:55:12.882Z,-2.23
2016-12-31T04:56:12.878Z,-2.39
2016-12-31T04:57:12.889Z,-2.26
2016-12-31T04:58:27.821Z,-2.39
2016-12-31T04:59:12.914Z,-2.49
2016-12-31T05:00:12.929Z,-2.5
2016-12-31T05:01:12.969Z,-2.43
2016-12-31T05:02:12.953Z,-2.4
2016-12-31T05:03:12.994Z,-2.49
2016-12-31T05:04:12.978Z,-2.58
2016-12-31T05:05:27.907Z,-2.45
2016-12-31T05:06:13.004Z,-2.53
2016-12-31T05:07:13.015Z,-2.49
2016-12-31T05:08:13.029Z,-2.55
2016-12-31T05:09:13.040Z,-2.46
2016-12-31T05:10:13.059Z,-2.58
2016-12-31T05:11:13.071Z,-2.34
2016-12-31T05:12:13.079Z,-2.43
2016-12-31T05:13:28.010Z,-2.39
2016-12-31T05:14:13.103Z,-2.37
2016-12-31T05:15:13.115Z,-2.39
2016-12-31T05:16:13.516Z,-2.49
2016-12-31T05:17:13.144Z,-2.55
2016-12-31T05:18:28.072Z,-2.4
2016-12-31T05:19:13.166Z,-2.49
2016-12-31T05:20:13.179Z,-2.48
2016-12-31T05:21:13.195Z,-2.56
2016-12-31T05:22:13.207Z,-2.55
2016-12-31T05:23:13.215Z,-2.52
2016-12-31T05:24:13.229Z,-2.6
2016-12-31T05:25:13.241Z,-2.55
2016-12-31T05:26:13.257Z,-2.61
2016-12-31T05:28:13.283Z,-2.64
2016-12-31T05:29:13.294Z,-2.64
2016-12-31T05:31:28.233Z,-2.6
2016-12-31T05:32:28.246Z,-2.73
2016-12-31T05:33:13.344Z,-2.77
2016-12-31T05:34:13.353Z,-2.73
2016-12-31T05:35:13.365Z,-2.6
2016-12-31T05:36:13.388Z,-2.6
2016-12-31T05:37:28.308Z,-2.61
2016-12-31T05:38:13.407Z,-2.58
2016-12-31T05:39:13.416Z,-2.6
2016-12-31T05:40:13.426Z,-2.71
2016-12-31T05:41:13.454Z,-2.71
2016-12-31T05:43:13.468Z,-2.7
2016-12-31T05:44:13.476Z,-2.67
2016-12-31T05:45:13.489Z,-2.64
2016-12-31T05:46:13.501Z,-2.7
2016-12-31T05:47:13.517Z,-2.78
2016-12-31T05:48:28.443Z,-2.78
2016-12-31T05:49:28.455Z,-2.73
2016-12-31T05:50:13.550Z,-2.79
2016-12-31T05:51:13.563Z,-2.84
2016-12-31T05:52:13.581Z,-2.82
2016-12-31T05:53:28.505Z,-2.82
2016-12-31T05:54:13.616Z,-2.77
2016-12-31T05:55:13.611Z,-2.7
2016-12-31T05:56:13.625Z,-2.7
2016-12-31T05:57:13.636Z,-2.68
2016-12-31T05:58:13.648Z,-2.74
2016-12-31T06:01:13.685Z,-2.7
2016-12-31T06:02:28.618Z,-2.7
2016-12-31T06:03:13.711Z,-2.68
2016-12-31T06:04:13.728Z,-2.68
2016-12-31T06:05:13.738Z,-2.61
2016-12-31T06:06:13.746Z,-2.58
2016-12-31T06:07:13.761Z,-2.58
2016-12-31T06:08:13.773Z,-2.64
2016-12-31T06:09:28.700Z,-2.61
2016-12-31T06:10:13.799Z,-2.48
2016-12-31T06:11:13.808Z,-2.5
2016-12-31T06:12:13.822Z,-2.52
2016-12-31T06:13:13.832Z,-2.61
2016-12-31T06:14:13.844Z,-2.6
2016-12-31T06:15:13.858Z,-2.55
2016-12-31T06:16:13.874Z,-2.56
2016-12-31T06:18:13.895Z,-2.49
2016-12-31T06:19:28.826Z,-2.53
2016-12-31T06:20:13.918Z,-2.48
2016-12-31T06:21:13.935Z,-2.52
2016-12-31T06:22:13.945Z,-2.49
2016-12-31T06:23:13.956Z,-2.5
2016-12-31T06:24:13.974Z,-2.52
2016-12-31T06:25:28.899Z,-2.52
2016-12-31T06:26:13.995Z,-2.39
2016-12-31T06:27:14.013Z,-2.52
2016-12-31T06:28:14.018Z,-2.48
2016-12-31T06:29:14.030Z,-2.55
2016-12-31T06:30:14.044Z,-2.42
2016-12-31T06:31:28.979Z,-2.49
2016-12-31T06:33:14.083Z,-2.45
2016-12-31T06:34:14.096Z,-2.43
2016-12-31T06:35:14.104Z,-2.42
2016-12-31T06:36:14.120Z,-2.34
2016-12-31T06:37:29.046Z,-2.56
2016-12-31T06:38:14.142Z,-2.35
2016-12-31T06:39:14.159Z,-2.34
2016-12-31T06:40:29.086Z,-2.48
2016-12-31T06:41:14.180Z,-2.5
2016-12-31T06:42:14.194Z,-2.52
2016-12-31T06:43:14.211Z,-2.48
2016-12-31T06:44:14.270Z,-2.5
2016-12-31T06:45:14.229Z,-2.4
2016-12-31T06:46:14.244Z,-2.46
2016-12-31T06:48:14.270Z,-2.45
2016-12-31T06:49:14.283Z,-2.49
2016-12-31T06:50:14.293Z,-2.52
2016-12-31T06:51:14.303Z,-2.45
2016-12-31T06:52:14.318Z,-2.37
2016-12-31T06:53:14.332Z,-2.49
2016-12-31T06:54:14.342Z,-2.4
2016-12-31T06:55:14.354Z,-2.4
2016-12-31T06:56:14.366Z,-2.4
2016-12-31T06:57:14.379Z,-2.45
2016-12-31T06:58:14.394Z,-2.56
2016-12-31T06:59:14.407Z,-2.48
2016-12-31T07:00:14.415Z,-2.61
2016-12-31T07:01:14.428Z,-2.58
2016-12-31T07:02:14.446Z,-2.48
2016-12-31T07:03:14.458Z,-2.48
2016-12-31T07:04:14.465Z,-2.5
2016-12-31T07:06:14.491Z,-2.5
2016-12-31T07:07:14.507Z,-2.4
2016-12-31T07:08:14.527Z,-2.42
2016-12-31T07:09:14.528Z,-2.29
2016-12-31T07:10:14.541Z,-2.26
2016-12-31T07:11:14.553Z,-2.26
2016-12-31T07:12:29.485Z,-2.35
2016-12-31T07:13:14.581Z,-2.26
2016-12-31T07:15:14.606Z,-2.49
2016-12-31T07:16:14.616Z,-2.39
2016-12-31T07:17:14.635Z,-2.37
2016-12-31T07:18:14.644Z,-2.43
2016-12-31T07:19:14.652Z,-2.27
2016-12-31T07:20:14.689Z,-2.32
2016-12-31T07:21:14.680Z,-2.39
2016-12-31T07:22:14.689Z,-2.4
2016-12-31T07:23:14.706Z,-2.29
2016-12-31T07:24:14.719Z,-2.32
2016-12-31T07:25:14.727Z,-2.27
2016-12-31T07:26:14.742Z,-2.35
2016-12-31T07:27:14.753Z,-2.3
2016-12-31T07:28:29.685Z,-2.16
2016-12-31T07:29:14.779Z,-2.18
2016-12-31T07:30:14.803Z,-2.15
2016-12-31T07:31:14.807Z,-2.2
2016-12-31T07:34:14.845Z,-2.24
2016-12-31T07:35:14.856Z,-2.18
2016-12-31T07:36:29.789Z,-2.34
2016-12-31T07:37:14.885Z,-2.34
2016-12-31T07:38:14.892Z,-2.26
2016-12-31T07:39:14.909Z,-2.3
2016-12-31T07:40:14.924Z,-2.2
2016-12-31T07:41:14.932Z,-2.24
2016-12-31T07:42:14.944Z,-2.26
2016-12-31T07:43:14.958Z,-2.13
2016-12-31T07:44:29.886Z,-2.18
2016-12-31T07:45:14.986Z,-2.18
2016-12-31T07:46:15.001Z,-2.1
2016-12-31T07:49:15.064Z,-2.05
2016-12-31T07:50:15.048Z,-2.08
2016-12-31T07:51:15.061Z,-2.13
2016-12-31T07:52:15.072Z,-2.09
2016-12-31T07:54:30.016Z,-2.09
2016-12-31T07:55:15.115Z,-1.92
2016-12-31T07:56:15.127Z,-1.88
2016-12-31T07:57:15.135Z,-1.85
2016-12-31T07:58:15.152Z,-1.8
2016-12-31T07:59:15.162Z,-1.92
2016-12-31T08:00:30.091Z,-1.92
2016-12-31T08:01:15.194Z,-1.87
2016-12-31T08:02:15.199Z,-1.87
2016-12-31T08:03:15.215Z,-1.9
2016-12-31T08:04:15.223Z,-1.98
2016-12-31T08:06:15.253Z,-1.8
2016-12-31T08:08:15.287Z,-1.84
2016-12-31T08:09:15.298Z,-1.8
2016-12-31T08:10:15.301Z,-1.84
2016-12-31T08:11:30.233Z,-1.67
2016-12-31T08:12:15.330Z,-1.79
2016-12-31T08:13:15.340Z,-1.74
2016-12-31T08:14:15.356Z,-1.69
2016-12-31T08:15:30.287Z,-1.73
2016-12-31T08:16:15.387Z,-1.69
2016-12-31T08:17:15.397Z,-1.72
2016-12-31T08:19:15.419Z,-1.56
2016-12-31T08:20:15.437Z,-1.67
2016-12-31T08:22:15.457Z,-1.59
2016-12-31T08:23:15.472Z,-1.55
2016-12-31T08:24:15.488Z,-1.54
2016-12-31T08:25:30.416Z,-1.59
2016-12-31T08:26:15.512Z,-1.51
2016-12-31T08:27:15.525Z,-1.58
2016-12-31T08:28:15.542Z,-1.45
2016-12-31T08:29:15.553Z,-1.51
2016-12-31T08:30:15.563Z,-1.4
2016-12-31T08:31:15.578Z,-1.35
2016-12-31T08:32:15.590Z,-1.35
2016-12-31T08:33:15.606Z,-1.4
2016-12-31T08:34:15.618Z,-1.37
2016-12-31T08:35:15.640Z,-1.38
2016-12-31T08:36:15.640Z,-1.3
2016-12-31T08:37:15.690Z,-1.23
2016-12-31T08:38:15.669Z,-1.17
2016-12-31T08:39:15.680Z,-1.19
2016-12-31T08:40:15.693Z,-1.16
2016-12-31T08:41:30.626Z,-1.17
2016-12-31T08:42:30.638Z,-1.1
2016-12-31T08:43:15.732Z,-1.17
2016-12-31T08:44:15.752Z,-1.19
2016-12-31T08:45:15.763Z,-1.16
2016-12-31T08:46:15.773Z,-1.1
2016-12-31T08:47:30.702Z,-1.12
2016-12-31T08:48:15.804Z,-0.99
2016-12-31T08:49:15.813Z,-1.04
2016-12-31T08:50:15.832Z,-0.91
2016-12-31T08:51:15.850Z,-0.83
2016-12-31T08:52:15.852Z,-0.85
2016-12-31T08:53:15.868Z,-0.83
2016-12-31T08:54:15.881Z,-0.67
2016-12-31T08:55:16.281Z,-0.67
2016-12-31T08:56:15.906Z,-0.55
2016-12-31T08:57:15.918Z,-0.43
2016-12-31T08:58:15.934Z,-0.47
2016-12-31T08:59:15.946Z,-0.55
2016-12-31T09:00:15.960Z,-0.46
2016-12-31T09:01:15.972Z,-0.29
2016-12-31T09:02:15.991Z,-0.37
2016-12-31T09:03:30.917Z,-0.25
2016-12-31T09:04:16.012Z,-0.29
2016-12-31T09:05:16.026Z,-0.21
2016-12-31T09:06:16.041Z,-0.19
2016-12-31T09:07:16.056Z,-0.16
2016-12-31T09:08:16.066Z,-0.16
2016-12-31T09:09:16.082Z,-0.11
2016-12-31T09:10:16.095Z,-0.18
2016-12-31T09:11:16.110Z,-0.16
2016-12-31T09:12:16.123Z,-0.05
2016-12-31T09:13:16.144Z,-0.07
2016-12-31T09:14:31.066Z,-0.01
2016-12-31T09:15:31.079Z,0
2016-12-31T09:16:31.092Z,-0.01
2016-12-31T09:17:16.191Z,0.1
2016-12-31T09:19:31.134Z,0.08
2016-12-31T09:20:16.231Z,-0.04
2016-12-31T09:21:16.246Z,0.14
2016-12-31T09:22:16.259Z,0.31
2016-12-31T09:23:16.272Z,0.26
2016-12-31T09:25:16.307Z,0.31
2016-12-31T09:26:16.316Z,0.26
2016-12-31T09:27:16.331Z,0.29
2016-12-31T09:28:16.343Z,0.29
2016-12-31T09:29:16.355Z,0.26
2016-12-31T09:30:16.369Z,0.33
2016-12-31T09:31:16.387Z,0.33
2016-12-31T09:32:16.396Z,0.26
2016-12-31T09:33:16.414Z,0.32
2016-12-31T09:34:16.432Z,0.28
2016-12-31T09:35:31.357Z,0.31
2016-12-31T09:36:16.455Z,0.36
2016-12-31T09:37:16.467Z,0.36
2016-12-31T09:38:16.484Z,0.39
2016-12-31T09:39:16.498Z,0.42
2016-12-31T09:40:16.509Z,0.49
2016-12-31T09:41:16.523Z,0.47
2016-12-31T09:42:16.539Z,0.46
2016-12-31T09:43:16.553Z,0.57
2016-12-31T09:44:16.566Z,0.57
2016-12-31T09:45:16.580Z,0.53
2016-12-31T09:46:31.513Z,0.68
2016-12-31T09:47:16.613Z,0.68
2016-12-31T09:48:16.623Z,0.55
2016-12-31T09:49:16.637Z,0.61
2016-12-31T09:50:31.571Z,0.6
2016-12-31T09:51:16.669Z,0.61
2016-12-31T09:52:16.684Z,0.69
2016-12-31T09:53:16.698Z,0.87
2016-12-31T09:54:16.710Z,0.91
2016-12-31T09:55:16.721Z,0.86
2016-12-31T09:57:16.752Z,0.76
2016-12-31T09:58:16.779Z,0.75
2016-12-31T09:59:16.781Z,0.7
2016-12-31T10:00:16.800Z,0.79
2016-12-31T10:01:16.832Z,0.7
2016-12-31T10:02:31.740Z,0.69
2016-12-31T10:03:16.837Z,0.88
2016-12-31T10:04:16.851Z,0.88
2016-12-31T10:05:16.871Z,0.97
2016-12-31T10:06:16.883Z,0.94
2016-12-31T10:07:16.892Z,1.06
2016-12-31T10:08:16.907Z,1.18
2016-12-31T10:09:16.923Z,1.06
2016-12-31T10:10:16.936Z,1.18
2016-12-31T10:13:16.981Z,1.12
2016-12-31T10:14:16.996Z,1.23
2016-12-31T10:15:17.012Z,1.24
2016-12-31T10:16:17.024Z,1.14
2016-12-31T10:17:17.037Z,1.15
2016-12-31T10:18:17.055Z,1.12
2016-12-31T10:19:17.066Z,1.27
2016-12-31T10:20:17.083Z,1.34
2016-12-31T10:21:17.146Z,1.33
2016-12-31T10:22:32.029Z,1.33
2016-12-31T10:24:17.140Z,1.29
2016-12-31T10:25:17.155Z,1.29
2016-12-31T10:26:17.174Z,1.26
2016-12-31T10:28:17.197Z,1.42
2016-12-31T10:30:17.229Z,1.33
2016-12-31T10:31:17.242Z,1.52
2016-12-31T10:32:17.258Z,1.37
2016-12-31T10:33:17.271Z,1.41
2016-12-31T10:34:17.286Z,1.33
2016-12-31T10:35:17.301Z,1.4
2016-12-31T10:36:32.262Z,1.48
2016-12-31T10:37:17.335Z,1.58
2016-12-31T10:38:32.269Z,1.45
2016-12-31T10:39:17.359Z,1.48
2016-12-31T10:40:17.377Z,1.48
2016-12-31T10:41:17.388Z,1.55
2016-12-31T10:42:17.788Z,1.68
2016-12-31T10:43:17.415Z,1.76
2016-12-31T10:44:17.432Z,1.66
2016-12-31T10:45:17.449Z,1.68
2016-12-31T10:46:17.463Z,1.68
2016-12-31T10:47:17.476Z,1.68
2016-12-31T10:48:17.490Z,1.62
2016-12-31T10:49:32.424Z,1.62
2016-12-31T10:50:32.438Z,1.62
2016-12-31T10:51:17.536Z,1.63
2016-12-31T10:52:17.556Z,1.72
2016-12-31T10:53:17.567Z,1.72
2016-12-31T10:54:32.498Z,1.62
2016-12-31T10:55:17.594Z,1.69
2016-12-31T10:56:17.611Z,1.76
2016-12-31T10:57:17.626Z,1.83
2016-12-31T10:58:17.640Z,1.86
2016-12-31T10:59:17.653Z,1.87
2016-12-31T11:00:17.674Z,1.91
2016-12-31T11:01:17.684Z,1.77
2016-12-31T11:02:17.699Z,1.86
2016-12-31T11:03:17.717Z,1.95
2016-12-31T11:04:17.729Z,1.9
2016-12-31T11:05:17.742Z,1.83
2016-12-31T11:06:17.785Z,1.98
2016-12-31T11:07:17.773Z,1.84
2016-12-31T11:08:17.786Z,1.91
2016-12-31T11:09:17.802Z,2
2016-12-31T11:10:32.735Z,1.99
2016-12-31T11:11:17.857Z,2.1
2016-12-31T11:12:17.851Z,2.03
2016-12-31T11:13:17.861Z,2.05
2016-12-31T11:14:17.875Z,1.99
2016-12-31T11:15:17.893Z,1.95
2016-12-31T11:16:17.907Z,1.9
2016-12-31T11:17:17.930Z,2.12
2016-12-31T11:19:17.957Z,2.17
2016-12-31T11:20:17.968Z,2.25
2016-12-31T11:21:18.010Z,2.31
2016-12-31T11:22:17.998Z,2.27
2016-12-31T11:23:18.015Z,2.21
2016-12-31T11:24:18.028Z,2.28
2016-12-31T11:25:32.961Z,2.3
2016-12-31T11:26:18.060Z,2.28
2016-12-31T11:27:18.077Z,2.28
2016-12-31T11:28:18.095Z,2.41
2016-12-31T11:29:18.103Z,2.48
2016-12-31T11:30:18.121Z,2.48
2016-12-31T11:31:18.137Z,2.45
2016-12-31T11:32:18.153Z,2.35
2016-12-31T11:33:18.166Z,2.43
2016-12-31T11:34:18.181Z,2.63
2016-12-31T11:35:18.198Z,2.46
2016-12-31T11:36:33.130Z,2.49
2016-12-31T11:37:18.232Z,2.52
2016-12-31T11:38:18.241Z,2.48
2016-12-31T11:39:18.265Z,2.45
2016-12-31T11:40:18.273Z,2.71
2016-12-31T11:41:18.288Z,2.72
2016-12-31T11:42:18.302Z,2.59
2016-12-31T11:43:18.320Z,2.64
2016-12-31T11:44:18.334Z,2.59
2016-12-31T11:45:18.349Z,2.69
2016-12-31T11:47:18.387Z,2.69
2016-12-31T11:48:18.397Z,2.78
2016-12-31T11:49:18.413Z,2.85
2016-12-31T11:50:18.432Z,2.82
2016-12-31T11:51:18.492Z,2.84
2016-12-31T11:52:18.465Z,2.81
2016-12-31T11:53:18.471Z,2.82
2016-12-31T11:54:18.490Z,2.99
2016-12-31T11:55:18.506Z,2.9
2016-12-31T11:56:18.521Z,2.96
2016-12-31T11:57:33.452Z,3
2016-12-31T11:58:18.551Z,3.08
2016-12-31T12:00:18.582Z,3.02
2016-12-31T12:02:18.616Z,3.02
2016-12-31T12:03:18.633Z,3.06
2016-12-31T12:05:18.659Z,2.89
2016-12-31T12:06:18.676Z,2.9
2016-12-31T12:07:33.611Z,2.92
2016-12-31T12:08:18.706Z,2.99
2016-12-31T12:09:18.723Z,3.03
2016-12-31T12:10:18.742Z,3.15
2016-12-31T12:11:18.755Z,3.14
2016-12-31T12:12:18.770Z,3.1
2016-12-31T12:13:33.704Z,3.1
2016-12-31T12:14:18.804Z,3.13
2016-12-31T12:15:18.816Z,3.2
2016-12-31T12:17:18.849Z,3.2
2016-12-31T12:18:18.864Z,3.15
2016-12-31T12:19:18.879Z,3.13
2016-12-31T12:20:18.902Z,3.23
2016-12-31T12:21:18.913Z,3.17
2016-12-31T12:22:18.929Z,3.28
2016-12-31T12:23:18.943Z,3.21
2016-12-31T12:24:18.961Z,3.2
2016-12-31T12:25:18.975Z,3.21
2016-12-31T12:26:18.994Z,3.24
2016-12-31T12:27:19.008Z,3.15
2016-12-31T12:28:19.024Z,3.31
2016-12-31T12:29:33.982Z,3.15
2016-12-31T12:30:19.054Z,3.17
2016-12-31T12:31:19.073Z,3.13
2016-12-31T12:32:19.086Z,3.32
2016-12-31T12:33:19.100Z,3.31
2016-12-31T12:36:19.150Z,3.48
2016-12-31T12:38:19.181Z,3.48
2016-12-31T12:39:19.197Z,3.39
2016-12-31T12:40:34.133Z,3.31
2016-12-31T12:41:19.438Z,3.42
2016-12-31T12:42:19.248Z,3.42
2016-12-31T12:43:19.264Z,3.43
2016-12-31T12:44:19.277Z,3.48
2016-12-31T12:45:34.210Z,3.29
2016-12-31T12:46:19.310Z,3.35
2016-12-31T12:47:19.334Z,3.57
2016-12-31T12:49:19.359Z,3.6
2016-12-31T12:50:19.372Z,3.54
2016-12-31T12:51:19.397Z,3.48
2016-12-31T12:52:19.405Z,3.6
2016-12-31T12:53:19.431Z,3.66
2016-12-31T12:54:19.436Z,3.57
2016-12-31T12:55:19.452Z,3.61
2016-12-31T12:56:19.468Z,3.62
2016-12-31T12:57:19.487Z,3.6
2016-12-31T12:58:19.503Z,3.52
2016-12-31T12:59:19.517Z,3.57
2016-12-31T13:00:34.453Z,3.69
2016-12-31T13:01:19.553Z,3.6
2016-12-31T13:02:19.566Z,3.52
2016-12-31T13:03:19.583Z,3.6
2016-12-31T13:04:19.604Z,3.54
2016-12-31T13:05:19.615Z,3.66
2016-12-31T13:06:19.633Z,3.68
2016-12-31T13:07:19.646Z,3.6
2016-12-31T13:09:19.682Z,3.55
2016-12-31T13:10:34.616Z,3.43
2016-12-31T13:11:34.630Z,3.61
2016-12-31T13:12:19.731Z,3.5
2016-12-31T13:13:19.745Z,3.5
2016-12-31T13:14:19.763Z,3.45
2016-12-31T13:15:19.777Z,3.6
2016-12-31T13:16:19.794Z,3.6
2016-12-31T13:17:19.807Z,3.55
2016-12-31T13:18:19.827Z,3.57
2016-12-31T13:19:19.842Z,3.65
2016-12-31T13:20:19.859Z,3.61
2016-12-31T13:21:19.873Z,3.58
2016-12-31T13:22:19.892Z,3.6
2016-12-31T13:23:19.908Z,3.66
2016-12-31T13:24:19.922Z,3.69
2016-12-31T13:25:19.938Z,3.75
2016-12-31T13:26:19.956Z,3.58
2016-12-31T13:27:19.974Z,3.61
2016-12-31T13:28:19.990Z,3.6
2016-12-31T13:29:20.026Z,3.61
2016-12-31T13:30:20.020Z,3.65
2016-12-31T13:31:20.035Z,3.58
2016-12-31T13:32:34.969Z,3.6
2016-12-31T13:33:20.067Z,3.54
2016-12-31T13:34:20.085Z,3.57
2016-12-31T13:35:20.106Z,3.58
2016-12-31T13:36:20.115Z,3.6
2016-12-31T13:37:20.134Z,3.55
2016-12-31T13:38:20.148Z,3.52
2016-12-31T13:39:20.166Z,3.48
2016-12-31T13:40:20.182Z,3.58
2016-12-31T13:41:20.199Z,3.58
2016-12-31T13:42:20.216Z,3.57
2016-12-31T13:43:35.149Z,3.48
2016-12-31T13:44:20.247Z,3.48
2016-12-31T13:45:20.261Z,3.45
2016-12-31T13:46:20.278Z,3.52
2016-12-31T13:47:20.297Z,3.55
2016-12-31T13:48:35.231Z,3.54
2016-12-31T13:49:20.336Z,3.51
2016-12-31T13:50:20.348Z,3.5
2016-12-31T13:51:20.360Z,3.42
2016-12-31T13:52:20.375Z,3.39
2016-12-31T13:54:20.410Z,3.23
2016-12-31T13:55:20.423Z,3.31
2016-12-31T13:56:20.442Z,3.24